createdAt,value
2023-05-06T00:02:24.294Z,15.36
2023-05-06T00:04:52.982Z,15.34
2023-05-06T00:07:19.957Z,15.34
2023-05-06T00:09:47.098Z,15.28
2023-05-06T00:12:14.078Z,15.25
2023-05-06T00:14:41.012Z,15.22
2023-05-06T00:17:08.199Z,15.19
2023-05-06T00:19:34.973Z,15.18
2023-05-06T00:22:01.801Z,15.10
2023-05-06T00:24:28.628Z,15.11
2023-05-06T00:26:55.508Z,15.08
2023-05-06T00:29:22.393Z,15.06
2023-05-06T00:31:49.270Z,15.01
2023-05-06T00:34:16.344Z,14.94
2023-05-06T00:36:43.188Z,14.92
2023-05-06T00:39:10.681Z,14.94
2023-05-06T00:41:37.527Z,14.88
2023-05-06T00:44:04.397Z,14.74
2023-05-06T00:46:31.253Z,14.85
2023-05-06T00:48:58.582Z,14.83
2023-05-06T00:51:26.158Z,14.78
2023-05-06T00:53:53.092Z,14.81
2023-05-06T00:56:20.866Z,14.78
2023-05-06T00:58:48.857Z,14.80
2023-05-06T01:01:15.825Z,14.79
2023-05-06T01:03:42.800Z,14.75
2023-05-06T01:06:12.769Z,14.77
2023-05-06T01:09:11.606Z,14.66
2023-05-06T01:11:56.898Z,14.57
2023-05-06T01:14:36.393Z,14.59
2023-05-06T01:17:10.893Z,14.56
2023-05-06T01:19:46.814Z,14.57
2023-05-06T01:22:15.706Z,14.54
2023-05-06T01:24:45.182Z,14.50
2023-05-06T01:27:14.205Z,14.52
2023-05-06T01:29:44.207Z,14.45
2023-05-06T01:32:23.039Z,14.38
2023-05-06T01:35:14.730Z,14.32
2023-05-06T01:37:44.345Z,14.35
2023-05-06T01:40:14.920Z,14.38
2023-05-06T01:42:42.172Z,14.41
2023-05-06T01:45:10.127Z,14.40
2023-05-06T01:47:40.992Z,14.34
2023-05-06T01:50:08.417Z,14.33
2023-05-06T01:52:35.316Z,14.34
2023-05-06T01:55:02.159Z,14.37
2023-05-06T01:57:30.333Z,14.37
2023-05-06T01:59:57.171Z,14.35
2023-05-06T02:02:24.504Z,14.35
2023-05-06T02:04:53.635Z,14.35
2023-05-06T02:07:21.168Z,14.35
2023-05-06T02:09:47.992Z,14.48
2023-05-06T02:12:16.090Z,14.53
2023-05-06T02:14:44.835Z,14.55
2023-05-06T02:17:11.812Z,14.56
2023-05-06T02:19:38.691Z,14.54
2023-05-06T02:22:05.896Z,14.53
2023-05-06T02:24:32.750Z,14.52
2023-05-06T02:26:59.621Z,14.55
2023-05-06T02:29:26.514Z,14.51
2023-05-06T02:31:53.376Z,14.53
2023-05-06T02:34:20.206Z,14.52
2023-05-06T02:36:47.033Z,14.50
2023-05-06T02:39:15.542Z,14.57
2023-05-06T02:41:42.357Z,14.60
2023-05-06T02:44:09.181Z,14.65
2023-05-06T02:46:36.082Z,14.70
2023-05-06T02:49:02.885Z,14.77
2023-05-06T02:51:29.988Z,14.85
2023-05-06T02:53:56.806Z,14.91
2023-05-06T02:56:23.668Z,14.94
2023-05-06T02:58:50.604Z,14.96
2023-05-06T03:01:17.460Z,14.99
2023-05-06T03:03:44.415Z,14.98
2023-05-06T03:06:11.470Z,14.97
2023-05-06T03:08:39.254Z,14.97
2023-05-06T03:11:08.187Z,15.01
2023-05-06T03:13:35.779Z,15.08
2023-05-06T03:16:03.049Z,15.07
2023-05-06T03:18:30.731Z,15.07
2023-05-06T03:20:57.601Z,15.07
2023-05-06T03:23:24.997Z,15.08
2023-05-06T03:25:51.855Z,15.08
2023-05-06T03:28:20.039Z,15.08
2023-05-06T03:30:47.750Z,15.05
2023-05-06T03:33:14.985Z,15.06
2023-05-06T03:35:42.792Z,15.09
2023-05-06T03:38:09.689Z,15.11
2023-05-06T03:40:50.213Z,15.08
2023-05-06T03:43:17.444Z,15.13
2023-05-06T03:45:47.645Z,15.12
2023-05-06T03:48:14.868Z,15.15
2023-05-06T03:50:44.226Z,15.07
2023-05-06T03:53:13.324Z,15.11
2023-05-06T03:55:42.469Z,15.09
2023-05-06T03:58:12.533Z,15.04
2023-05-06T04:00:41.650Z,15.04
2023-05-06T04:03:08.611Z,15.04
2023-05-06T04:05:42.360Z,15.06
2023-05-06T04:08:11.667Z,15.07
2023-05-06T04:10:40.433Z,15.09
2023-05-06T04:13:14.336Z,15.10
2023-05-06T04:15:44.020Z,15.15
2023-05-06T04:18:19.975Z,15.25
2023-05-06T04:20:55.929Z,15.26
2023-05-06T04:23:22.917Z,15.25
2023-05-06T04:25:50.618Z,15.27
2023-05-06T04:28:22.175Z,15.33
2023-05-06T04:30:51.733Z,15.41
2023-05-06T04:33:23.082Z,15.47
2023-05-06T04:35:54.234Z,15.57
2023-05-06T04:38:25.881Z,15.61
2023-05-06T04:40:55.559Z,15.64
2023-05-06T04:43:22.820Z,15.58
2023-05-06T04:45:55.738Z,15.51
2023-05-06T04:48:27.031Z,15.43
2023-05-06T04:50:57.418Z,15.47
2023-05-06T04:53:24.614Z,15.44
2023-05-06T04:55:51.461Z,15.39
2023-05-06T04:58:19.689Z,15.37
2023-05-06T05:00:47.419Z,15.34
2023-05-06T05:03:14.482Z,15.29
2023-05-06T05:05:42.055Z,15.29
2023-05-06T05:08:15.391Z,15.33
2023-05-06T05:10:46.030Z,15.28
2023-05-06T05:13:17.436Z,15.32
2023-05-06T05:15:52.115Z,15.34
2023-05-06T05:18:24.553Z,15.32
2023-05-06T05:20:57.803Z,15.40
2023-05-06T05:23:26.239Z,15.51
2023-05-06T05:25:53.206Z,15.63
2023-05-06T05:28:21.417Z,15.74
2023-05-06T05:30:50.475Z,15.87
2023-05-06T05:33:21.118Z,15.95
2023-05-06T05:35:52.817Z,15.97
2023-05-06T05:38:20.369Z,16.02
2023-05-06T05:40:47.175Z,15.97
2023-05-06T05:43:14.309Z,15.93
2023-05-06T05:45:42.619Z,15.94
2023-05-06T05:48:11.030Z,15.89
2023-05-06T05:50:39.193Z,15.91
2023-05-06T05:53:06.660Z,15.87
2023-05-06T05:55:36.220Z,15.77
2023-05-06T05:58:03.091Z,15.78
2023-05-06T06:00:31.146Z,15.91
2023-05-06T06:03:07.088Z,15.90
2023-05-06T06:05:34.027Z,15.85
2023-05-06T06:08:03.538Z,15.92
2023-05-06T06:10:31.318Z,16.01
2023-05-06T06:13:01.209Z,16.06
2023-05-06T06:15:31.720Z,16.16
2023-05-06T06:17:59.978Z,16.18
2023-05-06T06:20:29.345Z,16.19
2023-05-06T06:22:56.252Z,16.21
2023-05-06T06:25:24.571Z,16.17
2023-05-06T06:27:51.405Z,16.12
2023-05-06T06:30:18.288Z,16.19
2023-05-06T06:32:50.171Z,16.16
2023-05-06T06:35:17.781Z,16.11
2023-05-06T06:37:44.618Z,16.14
2023-05-06T06:40:12.372Z,16.04
2023-05-06T06:42:39.259Z,16.07
2023-05-06T06:45:18.581Z,16.14
2023-05-06T06:47:45.821Z,16.09
2023-05-06T06:50:12.805Z,16.06
2023-05-06T06:52:39.715Z,16.03
2023-05-06T06:55:06.952Z,16.09
2023-05-06T06:57:33.809Z,16.21
2023-05-06T07:00:01.704Z,16.28
2023-05-06T07:02:34.774Z,16.18
2023-05-06T07:05:01.952Z,16.15
2023-05-06T07:07:32.135Z,16.20
2023-05-06T07:09:59.295Z,16.24
2023-05-06T07:12:26.873Z,16.29
2023-05-06T07:14:53.737Z,16.29
2023-05-06T07:17:20.552Z,16.25
2023-05-06T07:19:47.498Z,16.18
2023-05-06T07:22:14.313Z,16.14
2023-05-06T07:24:41.417Z,16.18
2023-05-06T07:27:08.365Z,16.24
2023-05-06T07:29:36.798Z,16.21
2023-05-06T07:32:04.211Z,16.12
2023-05-06T07:34:34.584Z,16.14
2023-05-06T07:37:01.775Z,16.10
2023-05-06T07:39:28.802Z,16.10
2023-05-06T07:41:55.842Z,16.06
2023-05-06T07:44:22.842Z,15.99
2023-05-06T07:46:50.632Z,16.00
2023-05-06T07:49:17.584Z,16.13
2023-05-06T07:51:45.614Z,16.21
2023-05-06T07:54:13.455Z,16.27
2023-05-06T07:56:40.255Z,16.44
2023-05-06T07:59:07.348Z,16.74
2023-05-06T08:01:34.237Z,17.03
2023-05-06T08:04:01.396Z,17.06
2023-05-06T08:06:29.476Z,17.17
2023-05-06T08:08:56.478Z,17.34
2023-05-06T08:11:23.889Z,17.62
2023-05-06T08:13:50.907Z,17.92
2023-05-06T08:16:17.941Z,18.03
2023-05-06T08:18:44.781Z,18.17
2023-05-06T08:21:11.610Z,18.39
2023-05-06T08:23:38.537Z,18.69
2023-05-06T08:26:05.433Z,18.96
2023-05-06T08:28:32.282Z,19.26
2023-05-06T08:30:59.169Z,19.42
2023-05-06T08:33:25.985Z,19.61
2023-05-06T08:35:52.863Z,19.85
2023-05-06T08:38:19.799Z,19.79
2023-05-06T08:40:48.207Z,19.78
2023-05-06T08:43:18.344Z,20.00
2023-05-06T08:45:45.209Z,20.14
2023-05-06T08:48:12.492Z,20.13
2023-05-06T08:50:43.772Z,20.24
2023-05-06T08:53:13.616Z,20.34
2023-05-06T08:55:43.218Z,20.40
2023-05-06T08:58:13.468Z,20.42
2023-05-06T09:00:40.402Z,20.45
2023-05-06T09:03:07.479Z,20.54
2023-05-06T09:05:34.324Z,20.86
2023-05-06T09:08:01.170Z,21.10
2023-05-06T09:10:33.227Z,21.31
2023-05-06T09:13:00.040Z,21.39
2023-05-06T09:15:27.306Z,21.53
2023-05-06T09:17:56.243Z,21.71
2023-05-06T09:20:23.223Z,22.17
2023-05-06T09:22:50.685Z,22.65
2023-05-06T09:25:18.213Z,23.12
2023-05-06T09:27:46.508Z,23.39
2023-05-06T09:30:13.903Z,23.70
2023-05-06T09:32:42.078Z,23.91
2023-05-06T09:35:11.217Z,23.89
2023-05-06T09:37:38.442Z,23.80
2023-05-06T09:40:06.097Z,23.68
2023-05-06T09:42:34.402Z,23.57
2023-05-06T09:45:03.091Z,23.46
2023-05-06T09:47:36.624Z,23.36
2023-05-06T09:50:04.528Z,23.28
2023-05-06T09:52:33.571Z,23.13
2023-05-06T09:55:01.534Z,23.00
2023-05-06T09:57:33.420Z,22.88
2023-05-06T10:00:02.297Z,22.52
2023-05-06T10:02:44.419Z,22.10
2023-05-06T10:05:15.799Z,21.89
2023-05-06T10:07:43.331Z,21.87
2023-05-06T10:10:11.831Z,21.93
2023-05-06T10:12:39.038Z,22.09
2023-05-06T10:15:06.640Z,22.18
2023-05-06T10:17:34.123Z,22.37
2023-05-06T10:20:02.530Z,22.51
2023-05-06T10:22:56.646Z,22.61
2023-05-06T10:25:37.242Z,22.95
2023-05-06T10:28:11.534Z,23.11
2023-05-06T10:30:49.997Z,23.50
2023-05-06T10:33:17.269Z,23.76
2023-05-06T10:36:08.327Z,23.80
2023-05-06T10:38:47.328Z,23.75
2023-05-06T10:41:15.191Z,23.83
2023-05-06T10:43:43.337Z,23.82
2023-05-06T10:46:15.092Z,23.78
2023-05-06T10:49:13.918Z,23.77
2023-05-06T10:51:44.212Z,24.08
2023-05-06T10:54:22.950Z,24.01
2023-05-06T10:56:49.872Z,23.77
2023-05-06T10:59:25.836Z,23.56
2023-05-06T11:02:11.227Z,23.33
2023-05-06T11:04:38.787Z,23.45
2023-05-06T11:07:14.103Z,23.30
2023-05-06T11:10:06.263Z,23.30
2023-05-06T11:12:47.452Z,23.35
2023-05-06T11:15:40.093Z,23.51
2023-05-06T11:18:32.058Z,23.50
2023-05-06T11:21:00.966Z,23.84
2023-05-06T11:23:43.438Z,23.70
2023-05-06T11:26:11.709Z,23.72
2023-05-06T11:28:39.481Z,23.62
2023-05-06T11:31:07.899Z,23.54
2023-05-06T11:33:36.643Z,23.55
2023-05-06T11:36:04.796Z,23.50
2023-05-06T11:38:44.966Z,23.22
2023-05-06T11:41:13.045Z,23.01
2023-05-06T11:43:40.231Z,22.91
2023-05-06T11:46:07.229Z,22.77
2023-05-06T11:48:34.265Z,22.58
2023-05-06T11:51:01.092Z,22.39
2023-05-06T11:53:29.691Z,22.21
2023-05-06T11:55:56.598Z,22.22
2023-05-06T11:58:27.508Z,22.24
2023-05-06T12:00:56.414Z,22.13
2023-05-06T12:03:25.000Z,22.16
2023-05-06T12:05:52.839Z,22.20
2023-05-06T12:08:28.434Z,22.18
2023-05-06T12:10:59.166Z,22.23
2023-05-06T12:13:27.248Z,22.31
2023-05-06T12:15:58.995Z,22.26
2023-05-06T12:18:26.414Z,22.35
2023-05-06T12:21:07.386Z,22.23
2023-05-06T12:23:34.226Z,22.28
2023-05-06T12:26:10.027Z,22.15
2023-05-06T12:28:37.515Z,22.11
2023-05-06T12:31:20.706Z,21.86
2023-05-06T12:33:51.467Z,21.91
2023-05-06T12:36:19.271Z,21.87
2023-05-06T12:39:02.167Z,21.78
2023-05-06T12:41:39.212Z,21.80
2023-05-06T12:44:29.924Z,21.85
2023-05-06T12:46:57.162Z,22.26
2023-05-06T12:49:24.005Z,22.55
2023-05-06T12:52:09.508Z,22.75
2023-05-06T12:54:37.552Z,23.06
2023-05-06T12:57:05.413Z,23.23
2023-05-06T12:59:33.154Z,23.47
2023-05-06T13:02:00.106Z,23.58
2023-05-06T13:04:27.597Z,23.68
2023-05-06T13:06:55.814Z,23.78
2023-05-06T13:09:23.213Z,23.90
2023-05-06T13:11:50.566Z,23.89
2023-05-06T13:14:17.648Z,23.78
2023-05-06T13:16:45.607Z,23.62
2023-05-06T13:19:21.024Z,23.58
2023-05-06T13:21:51.901Z,23.56
2023-05-06T13:24:18.740Z,23.53
2023-05-06T13:26:45.564Z,23.52
2023-05-06T13:29:12.420Z,23.62
2023-05-06T13:31:39.370Z,23.53
2023-05-06T13:34:06.249Z,23.47
2023-05-06T13:36:33.115Z,23.45
2023-05-06T13:39:00.606Z,23.46
2023-05-06T13:41:27.503Z,23.41
2023-05-06T13:43:54.364Z,23.39
2023-05-06T13:46:25.156Z,23.25
2023-05-06T13:48:52.051Z,23.18
2023-05-06T13:51:18.857Z,22.73
2023-05-06T13:53:45.718Z,22.44
2023-05-06T13:56:12.513Z,22.36
2023-05-06T13:58:42.420Z,22.35
2023-05-06T14:01:09.342Z,22.35
2023-05-06T14:03:38.722Z,22.37
2023-05-06T14:06:06.375Z,22.27
2023-05-06T14:08:33.223Z,22.27
2023-05-06T14:11:00.139Z,22.26
2023-05-06T14:13:30.412Z,22.13
2023-05-06T14:15:57.588Z,22.07
2023-05-06T14:18:26.517Z,21.92
2023-05-06T14:20:54.010Z,21.94
2023-05-06T14:23:20.852Z,21.92
2023-05-06T14:25:47.747Z,21.79
2023-05-06T14:28:15.733Z,21.66
2023-05-06T14:30:43.398Z,21.47
2023-05-06T14:33:10.878Z,21.39
2023-05-06T14:35:42.282Z,21.45
2023-05-06T14:38:10.880Z,21.60
2023-05-06T14:40:38.879Z,21.68
2023-05-06T14:43:09.039Z,21.70
2023-05-06T14:45:36.153Z,21.55
2023-05-06T14:48:04.000Z,21.35
2023-05-06T14:50:31.360Z,21.27
2023-05-06T14:52:58.234Z,21.23
2023-05-06T14:55:27.838Z,21.15
2023-05-06T14:57:55.711Z,20.96
2023-05-06T15:00:22.721Z,20.71
2023-05-06T15:02:49.540Z,20.55
2023-05-06T15:05:16.482Z,20.49
2023-05-06T15:07:43.481Z,20.41
2023-05-06T15:10:10.568Z,20.31
2023-05-06T15:12:37.631Z,20.31
2023-05-06T15:15:05.477Z,20.34
2023-05-06T15:17:33.767Z,20.36
2023-05-06T15:20:00.871Z,20.17
2023-05-06T15:22:28.427Z,20.12
2023-05-06T15:24:55.347Z,20.08
2023-05-06T15:27:22.253Z,20.14
2023-05-06T15:29:49.133Z,20.18
2023-05-06T15:32:16.604Z,20.19
2023-05-06T15:34:43.401Z,20.17
2023-05-06T15:37:10.637Z,20.18
2023-05-06T15:39:38.960Z,20.13
2023-05-06T15:42:06.414Z,20.07
2023-05-06T15:44:34.131Z,20.04
2023-05-06T15:47:01.077Z,20.10
2023-05-06T15:52:00.599Z,20.25
2023-05-06T15:54:28.576Z,20.27
2023-05-06T15:56:56.535Z,20.32
2023-05-06T15:59:23.700Z,20.35
2023-05-06T16:02:25.655Z,20.36
2023-05-06T16:04:37.997Z,20.35
2023-05-06T16:07:05.161Z,20.40
2023-05-06T16:09:31.981Z,20.41
2023-05-06T16:12:01.821Z,20.40
2023-05-06T16:14:37.031Z,20.40
2023-05-06T16:17:04.077Z,20.36
2023-05-06T16:19:32.183Z,20.27
2023-05-06T16:21:59.013Z,20.19
2023-05-06T16:24:25.929Z,20.13
2023-05-06T16:26:52.919Z,20.02
2023-05-06T16:29:20.803Z,19.97
2023-05-06T16:31:48.603Z,19.91
2023-05-06T16:34:17.444Z,19.92
2023-05-06T16:36:46.077Z,19.92
2023-05-06T16:39:13.241Z,19.91
2023-05-06T16:41:40.326Z,19.89
2023-05-06T16:44:07.563Z,19.89
2023-05-06T16:46:34.447Z,19.91
2023-05-06T16:49:03.853Z,19.89
2023-05-06T16:51:31.462Z,19.89
2023-05-06T16:53:58.491Z,19.86
2023-05-06T16:56:28.237Z,19.85
2023-05-06T16:58:59.890Z,19.82
2023-05-06T17:01:27.766Z,19.77
2023-05-06T17:03:54.724Z,19.77
2023-05-06T17:06:23.880Z,19.73
2023-05-06T17:08:50.955Z,19.70
2023-05-06T17:11:17.746Z,19.64
2023-05-06T17:13:44.694Z,19.57
2023-05-06T17:16:11.541Z,19.51
2023-05-06T17:18:38.403Z,19.51
2023-05-06T17:21:11.161Z,19.46
2023-05-06T17:23:38.400Z,19.38
2023-05-06T17:26:09.804Z,19.28
2023-05-06T17:28:37.803Z,19.22
2023-05-06T17:31:04.889Z,19.13
2023-05-06T17:33:32.569Z,19.02
2023-05-06T17:35:59.408Z,18.94
2023-05-06T17:38:26.395Z,18.92
2023-05-06T17:40:54.216Z,18.92
2023-05-06T17:43:21.232Z,18.91
2023-05-06T17:45:48.168Z,18.89
2023-05-06T17:48:15.010Z,18.84
2023-05-06T17:50:41.902Z,18.77
2023-05-06T17:53:08.640Z,18.72
2023-05-06T17:55:35.531Z,18.66
2023-05-06T17:58:02.396Z,18.62
2023-05-06T18:00:29.284Z,18.58
2023-05-06T18:02:56.296Z,18.51
2023-05-06T18:05:25.680Z,18.47
2023-05-06T18:07:53.219Z,18.40
2023-05-06T18:10:20.266Z,18.39
2023-05-06T18:12:48.195Z,18.32
2023-05-06T18:15:15.519Z,18.26
2023-05-06T18:17:42.648Z,18.23
2023-05-06T18:20:10.360Z,18.19
2023-05-06T18:22:37.287Z,18.17
2023-05-06T18:25:04.399Z,18.13
2023-05-06T18:27:32.639Z,18.09
2023-05-06T18:29:59.618Z,18.06
2023-05-06T18:32:26.540Z,18.04
2023-05-06T18:34:53.501Z,18.00
2023-05-06T18:37:20.324Z,17.95
2023-05-06T18:39:47.167Z,17.95
2023-05-06T18:42:13.937Z,17.95
2023-05-06T18:44:41.764Z,17.94
2023-05-06T18:47:08.900Z,17.97
2023-05-06T18:49:35.937Z,17.98
2023-05-06T18:52:02.938Z,17.97
2023-05-06T18:54:29.775Z,17.97
2023-05-06T18:56:58.045Z,17.93
2023-05-06T18:59:25.603Z,17.88
2023-05-06T19:01:52.599Z,17.83
2023-05-06T19:04:19.470Z,17.79
2023-05-06T19:06:46.342Z,17.79
2023-05-06T19:09:13.505Z,17.78
2023-05-06T19:11:40.465Z,17.80
2023-05-06T19:14:07.332Z,17.78
2023-05-06T19:16:34.135Z,17.77
2023-05-06T19:19:02.767Z,17.76
2023-05-06T19:21:29.690Z,17.74
2023-05-06T19:23:59.773Z,17.75
2023-05-06T19:26:30.191Z,17.69
2023-05-06T19:28:57.164Z,17.68
2023-05-06T19:31:24.150Z,17.68
2023-05-06T19:33:51.114Z,17.67
2023-05-06T19:36:18.190Z,17.64
2023-05-06T19:38:44.969Z,17.61
2023-05-06T19:41:11.845Z,17.60
2023-05-06T19:43:43.107Z,17.55
2023-05-06T19:46:11.127Z,17.53
2023-05-06T19:48:39.147Z,17.52
2023-05-06T19:51:06.990Z,17.51
2023-05-06T19:53:34.631Z,17.49
2023-05-06T19:56:17.119Z,17.40
2023-05-06T19:58:44.326Z,17.37
2023-05-06T20:01:11.698Z,17.34
2023-05-06T20:03:39.228Z,17.30
2023-05-06T20:06:06.632Z,17.25
2023-05-06T20:08:38.216Z,17.19
2023-05-06T20:11:06.764Z,17.17
2023-05-06T20:13:33.825Z,17.16
2023-05-06T20:16:02.052Z,17.15
2023-05-06T20:18:28.937Z,17.16
2023-05-06T20:20:56.437Z,17.18
2023-05-06T20:23:23.660Z,17.21
2023-05-06T20:25:53.766Z,17.23
2023-05-06T20:28:20.642Z,17.30
2023-05-06T20:30:48.755Z,17.31
2023-05-06T20:33:15.816Z,17.35
2023-05-06T20:35:46.024Z,17.37
2023-05-06T20:38:19.791Z,17.41
2023-05-06T20:40:48.487Z,17.40
2023-05-06T20:43:19.477Z,17.43
2023-05-06T20:45:48.814Z,17.43
2023-05-06T20:48:18.081Z,17.45
2023-05-06T20:50:45.129Z,17.48
2023-05-06T20:53:18.614Z,17.49
2023-05-06T20:55:48.004Z,17.51
2023-05-06T20:58:15.460Z,17.52
2023-05-06T21:00:47.116Z,17.54
2023-05-06T21:03:14.018Z,17.55
2023-05-06T21:05:40.986Z,17.58
2023-05-06T21:08:08.918Z,17.57
2023-05-06T21:10:38.642Z,17.60
2023-05-06T21:13:15.356Z,17.63
2023-05-06T21:15:51.667Z,17.59
2023-05-06T21:18:24.835Z,17.64
2023-05-06T21:20:54.491Z,17.63
2023-05-06T21:23:21.454Z,17.62
2023-05-06T21:25:51.414Z,17.61
2023-05-06T21:28:20.474Z,17.64
2023-05-06T21:30:48.010Z,17.63
2023-05-06T21:33:26.719Z,17.65
2023-05-06T21:35:56.740Z,17.63
2023-05-06T21:38:27.784Z,17.64
2023-05-06T21:40:55.838Z,17.65
2023-05-06T21:43:22.745Z,17.68
2023-05-06T21:45:55.146Z,17.65
2023-05-06T21:48:22.109Z,17.67
2023-05-06T21:51:18.959Z,17.58
2023-05-06T21:53:53.987Z,17.66
2023-05-06T21:56:23.002Z,17.66
2023-05-06T21:58:52.799Z,17.68
2023-05-06T22:01:19.614Z,17.66
2023-05-06T22:03:46.681Z,17.66
2023-05-06T22:06:13.696Z,17.63
2023-05-06T22:08:41.269Z,17.61
2023-05-06T22:11:08.118Z,17.60
2023-05-06T22:13:35.251Z,17.59
2023-05-06T22:16:02.568Z,17.56
2023-05-06T22:18:30.121Z,17.52
2023-05-06T22:20:57.939Z,17.48
2023-05-06T22:23:25.495Z,17.43
2023-05-06T22:25:52.430Z,17.38
2023-05-06T22:28:19.979Z,17.31
2023-05-06T22:30:46.848Z,17.27
2023-05-06T22:33:13.847Z,17.22
2023-05-06T22:35:40.686Z,17.22
2023-05-06T22:38:08.031Z,17.22
2023-05-06T22:40:34.814Z,17.24
2023-05-06T22:43:01.657Z,17.26
2023-05-06T22:45:28.528Z,17.26
2023-05-06T22:47:56.086Z,17.25
2023-05-06T22:50:23.120Z,17.24
2023-05-06T22:52:49.915Z,17.24
2023-05-06T22:55:18.005Z,17.23
2023-05-06T22:57:45.009Z,17.21
2023-05-06T23:00:14.112Z,17.22
2023-05-06T23:02:41.211Z,17.22
2023-05-06T23:05:08.633Z,17.23
2023-05-06T23:07:35.824Z,17.23
2023-05-06T23:10:02.910Z,17.26
2023-05-06T23:12:33.599Z,17.28
2023-05-06T23:15:02.158Z,17.26
2023-05-06T23:17:34.230Z,17.24
2023-05-06T23:20:01.368Z,17.23
2023-05-06T23:22:30.921Z,17.17
2023-05-06T23:24:57.856Z,17.13
2023-05-06T23:27:25.104Z,17.06
2023-05-06T23:29:51.958Z,17.02
2023-05-06T23:32:19.794Z,16.94
2023-05-06T23:34:47.309Z,16.88
2023-05-06T23:37:14.376Z,16.83
2023-05-06T23:39:43.126Z,16.77
2023-05-06T23:42:10.205Z,16.70
2023-05-06T23:44:37.598Z,16.65
2023-05-06T23:47:04.460Z,16.60
2023-05-06T23:49:32.034Z,16.54
2023-05-06T23:51:58.955Z,16.50
2023-05-06T23:54:25.890Z,16.45
2023-05-06T23:56:53.045Z,16.40
2023-05-06T23:59:19.918Z,16.35
